Time;durP1;ratioP1;P1;durP2;ratioP2;P2;SDS_P1;SDS_P2;PMS_P1;PMS_P2;Temp;Humidity;BMP_temperature;BMP_pressure;BME280_temperature;BME280_humidity;BME280_pressure;Samples;Min_cycle;Max_cycle;Signal;HPM_P1;HPM_P2
2021/07/22 00:01:21;;;;;;;;;0.00;0.00;;;;;24.32;46.22;101810.44;6148287;23;45307;-79
2021/07/22 00:03:46;;;;;;;;;2.00;1.00;;;;;24.25;46.18;101807.09;6148004;23;45875;-79
2021/07/22 00:06:12;;;;;;;;;0.00;0.00;;;;;23.90;46.44;101748.78;6147036;23;51017;-79
2021/07/22 00:08:37;;;;;;;;;0.00;0.00;;;;;23.87;46.15;101749.75;6147638;23;45315;-79
2021/07/22 00:11:06;;;;;;;;;0.00;0.00;;;;;24.17;46.03;101796.72;6145478;23;54753;-79
2021/07/22 00:13:31;;;;;;;;;2.50;0.00;;;;;24.07;46.29;101787.25;6145255;23;46389;-80
2021/07/22 00:15:57;;;;;;;;;0.00;0.00;;;;;24.08;46.85;101794.31;6147859;23;45319;-79
2021/07/22 00:18:22;;;;;;;;;0.00;0.00;;;;;24.07;46.61;101806.72;6147571;23;45326;-80
2021/07/22 00:20:48;;;;;;;;;0.50;0.50;;;;;24.02;46.69;101804.25;6148223;23;45483;-78
2021/07/22 00:23:13;;;;;;;;;1.00;0.00;;;;;23.98;47.03;101794.59;6146963;23;45612;-78
2021/07/22 00:25:39;;;;;;;;;0.50;0.50;;;;;23.92;46.72;101797.47;6147534;23;45380;-78
2021/07/22 00:28:05;;;;;;;;;0.75;0.75;;;;;23.92;46.69;101810.78;6147606;23;45390;-79
2021/07/22 00:30:30;;;;;;;;;0.75;0.00;;;;;23.79;47.34;101781.88;6148030;23;45301;-79
2021/07/22 00:32:57;;;;;;;;;1.00;1.00;;;;;23.90;46.75;101808.16;6147395;23;45865;-79
2021/07/22 00:35:23;;;;;;;;;0.00;0.00;;;;;23.85;47.03;101796.78;6147556;23;45252;-78
2021/07/22 00:37:48;;;;;;;;;1.00;0.00;;;;;23.95;47.05;101812.47;6147506;23;45259;-78
2021/07/22 00:40:14;;;;;;;;;0.00;0.00;;;;;23.89;46.69;101801.06;6148021;23;45432;-79
2021/07/22 00:42:55;;;;;;;;;0.00;0.00;;;;;23.95;46.83;101812.47;6147377;23;46215;-79
2021/07/22 00:45:20;;;;;;;;;1.50;1.25;;;;;23.81;46.95;101797.78;6145201;23;45376;-78
2021/07/22 00:47:45;;;;;;;;;1.25;1.00;;;;;23.73;47.03;101786.53;6146498;23;60875;-78
2021/07/22 00:50:10;;;;;;;;;0.75;0.75;;;;;23.85;47.33;101811.84;6145188;23;54593;-78
2021/07/22 00:52:36;;;;;;;;;0.50;0.50;;;;;23.84;47.26;101811.00;6146829;23;46048;-79
2021/07/22 00:55:01;;;;;;;;;2.25;0.75;;;;;23.82;47.08;101810.16;6146467;23;53877;-79
2021/07/22 00:57:27;;;;;;;;;1.00;1.00;;;;;23.67;47.21;101784.91;6145930;23;45437;-78
2021/07/22 00:59:52;;;;;;;;;0.00;0.00;;;;;23.72;47.54;101801.59;6147547;23;45198;-78
2021/07/22 01:02:17;;;;;;;;;0.00;0.00;;;;;23.73;47.63;101803.34;6146423;23;50896;-80
2021/07/22 01:04:43;;;;;;;;;0.00;0.00;;;;;23.65;47.89;101792.94;6147299;23;45473;-78
2021/07/22 01:07:09;;;;;;;;;0.00;0.00;;;;;23.38;47.86;101757.44;6146857;23;45364;-79
2021/07/22 01:09:34;;;;;;;;;1.00;1.00;;;;;23.56;48.04;101797.66;6147675;23;45401;-79
2021/07/22 01:11:59;;;;;;;;;2.00;0.25;;;;;23.61;47.54;101807.22;6146441;23;46402;-78
2021/07/22 01:14:25;;;;;;;;;1.00;1.00;;;;;23.40;48.06;101783.03;6147043;23;45260;-78
2021/07/22 01:16:50;;;;;;;;;0.00;0.00;;;;;23.50;47.86;101806.69;6147563;23;45213;-79
2021/07/22 01:19:16;;;;;;;;;1.00;1.00;;;;;23.41;47.97;101802.50;6145822;23;45334;-79
2021/07/22 01:21:41;;;;;;;;;1.75;0.50;;;;;23.41;48.28;101810.47;6147240;23;45667;-79
2021/07/22 01:24:06;;;;;;;;;1.25;0.50;;;;;23.38;48.40;101808.78;6143541;23;45653;-79
2021/07/22 01:26:31;;;;;;;;;0.00;0.00;;;;;23.18;47.99;101780.09;6144237;23;45708;-79
2021/07/22 01:28:57;;;;;;;;;0.00;0.00;;;;;23.31;48.50;101801.00;6144900;23;46417;-79
2021/07/22 01:31:23;;;;;;;;;1.00;1.00;;;;;23.29;48.63;101806.34;6147646;23;45342;-78
2021/07/22 01:33:49;;;;;;;;;0.00;0.00;;;;;23.28;48.40;101804.63;6147192;23;45371;-79
2021/07/22 01:36:17;;;;;;;;;0.75;0.75;;;;;22.95;48.68;101759.47;6145574;23;50512;-79
2021/07/22 01:38:43;;;;;;;;;0.00;0.00;;;;;23.21;49.00;101805.72;6147313;23;45401;-79
2021/07/22 01:41:08;;;;;;;;;0.00;0.00;;;;;22.93;48.78;101762.19;6147288;23;46262;-78
2021/07/22 01:43:33;;;;;;;;;0.00;0.00;;;;;23.19;48.54;101805.75;6144525;23;54809;-79
2021/07/22 01:45:59;;;;;;;;;1.50;1.00;;;;;23.23;48.92;101811.81;6146700;23;45208;-78
2021/07/22 01:48:24;;;;;;;;;0.00;0.00;;;;;23.15;48.42;101793.44;6147674;23;45366;-78
2021/07/22 01:50:49;;;;;;;;;0.00;0.00;;;;;23.21;49.03;101795.94;6146642;23;46369;-78
2021/07/22 01:53:15;;;;;;;;;0.00;0.00;;;;;23.25;48.47;101802.91;6146557;23;51023;-78
2021/07/22 01:55:40;;;;;;;;;0.00;0.00;;;;;23.12;49.00;101780.28;6146869;23;45230;-78
2021/07/22 01:58:05;;;;;;;;;0.75;0.75;;;;;23.00;48.55;101757.59;6147392;23;45228;-79
2021/07/22 02:00:31;;;;;;;;;1.00;0.00;;;;;23.18;48.59;101800.47;6144726;23;49472;-79
2021/07/22 02:02:56;;;;;;;;;0.00;0.00;;;;;23.09;48.96;101798.94;6144480;23;45686;-80
2021/07/22 02:05:21;;;;;;;;;0.00;0.00;;;;;22.93;49.57;101782.56;6146408;23;45360;-79
2021/07/22 02:07:46;;;;;;;;;1.25;0.00;;;;;22.93;49.05;101791.38;6146653;23;50270;-78
2021/07/22 02:10:12;;;;;;;;;0.25;0.00;;;;;23.02;49.29;101796.44;6146793;23;45430;-78
2021/07/22 02:12:37;;;;;;;;;0.00;0.00;;;;;22.83;49.66;101763.34;6144822;23;45316;-78
2021/07/22 02:15:03;;;;;;;;;1.00;1.00;;;;;22.97;49.39;101792.19;6147521;23;45332;-79
2021/07/22 02:17:29;;;;;;;;;1.75;1.75;;;;;22.92;49.41;101792.31;6147577;23;45228;-79
2021/07/22 02:19:54;;;;;;;;;2.00;0.00;;;;;22.84;49.59;101797.81;6146602;23;45328;-79
2021/07/22 02:22:19;;;;;;;;;0.75;0.00;;;;;22.83;49.48;101789.88;6147438;23;45428;-80
2021/07/22 02:24:45;;;;;;;;;1.00;0.25;;;;;22.78;50.13;101784.69;6146931;23;50399;-78
2021/07/22 02:27:10;;;;;;;;;0.50;0.00;;;;;22.69;50.00;101764.56;6147242;23;45434;-80
2021/07/22 02:29:35;;;;;;;;;0.00;0.00;;;;;22.82;49.89;101789.03;6147015;23;45363;-79
2021/07/22 02:32:02;;;;;;;;;2.75;0.75;;;;;22.84;50.08;101792.50;6146777;23;45349;-78
2021/07/22 02:34:28;;;;;;;;;0.00;0.00;;;;;22.80;49.60;101784.66;6146140;23;45406;-80
2021/07/22 02:36:53;;;;;;;;;1.00;1.00;;;;;22.86;50.01;101788.03;6147270;23;45472;-78
2021/07/22 02:39:18;;;;;;;;;0.25;0.00;;;;;22.86;50.01;101793.34;6146833;23;48994;-79
2021/07/22 02:41:44;;;;;;;;;4.75;0.25;;;;;22.63;49.57;101754.16;6146553;23;45329;-79
2021/07/22 02:44:09;;;;;;;;;2.25;0.25;;;;;22.88;49.71;101788.00;6146853;23;52448;-81
2021/07/22 02:46:35;;;;;;;;;0.00;0.00;;;;;22.87;49.24;101797.72;6145384;23;45246;-78
2021/07/22 02:49:00;;;;;;;;;1.00;1.00;;;;;22.82;49.47;101788.16;6147519;23;45401;-78
2021/07/22 02:51:26;;;;;;;;;2.00;0.25;;;;;22.83;50.00;101793.41;6149068;23;45363;-76
2021/07/22 02:53:51;;;;;;;;;1.50;1.25;;;;;22.80;49.87;101790.84;6148461;23;45363;-79
2021/07/22 02:56:16;;;;;;;;;0.50;0.00;;;;;22.82;49.87;101791.69;6149133;23;45382;-80
2021/07/22 02:58:41;;;;;;;;;1.00;1.00;;;;;22.82;49.41;101794.34;6148400;23;45956;-77
2021/07/22 03:01:10;;;;;;;;;0.25;0.25;;;;;22.65;49.57;101771.75;6144343;23;57715;-78
2021/07/22 03:03:36;;;;;;;;;1.50;1.50;;;;;22.68;49.78;101770.81;6147937;23;45356;-78
2021/07/22 03:06:01;;;;;;;;;2.00;0.25;;;;;22.78;49.72;101796.19;6147357;23;45472;-77
2021/07/22 03:08:26;;;;;;;;;2.25;1.00;;;;;22.73;50.04;101789.25;6146195;23;48230;-78
2021/07/22 03:10:52;;;;;;;;;0.00;0.00;;;;;22.77;49.63;101797.13;6147153;23;45790;-77
2021/07/22 03:13:17;;;;;;;;;0.00;0.00;;;;;22.70;49.99;101786.69;6147647;23;45561;-77
2021/07/22 03:15:42;;;;;;;;;0.00;0.00;;;;;22.68;49.75;101783.19;6148469;23;45328;-77
2021/07/22 03:18:08;;;;;;;;;0.50;0.50;;;;;22.73;49.71;101797.22;6147938;23;46226;-77
2021/07/22 03:20:33;;;;;;;;;0.50;0.50;;;;;22.70;49.69;101787.56;6148050;23;45188;-77
2021/07/22 03:23:02;;;;;;;;;1.00;0.25;;;;;22.69;49.88;101787.59;6148324;23;53185;-77
2021/07/22 03:25:27;;;;;;;;;2.25;2.00;;;;;22.78;49.71;101801.50;6147960;23;45390;-77
2021/07/22 03:27:57;;;;;;;;;0.00;0.00;;;;;22.45;49.93;101735.09;6148076;23;46142;-77
2021/07/22 03:30:22;;;;;;;;;3.75;0.25;;;;;22.73;50.31;101802.53;6148022;23;45319;-78
2021/07/22 03:32:47;;;;;;;;;0.00;0.00;;;;;22.64;50.18;101793.88;6145911;23;45328;-77
2021/07/22 03:35:13;;;;;;;;;0.25;0.25;;;;;22.71;50.14;101799.91;6147768;23;45270;-77
2021/07/22 03:37:38;;;;;;;;;0.00;0.00;;;;;22.67;49.91;101786.75;6148182;23;45394;-77
2021/07/22 03:40:04;;;;;;;;;0.75;0.00;;;;;22.72;49.88;101793.69;6148049;23;45238;-78
2021/07/22 03:42:31;;;;;;;;;0.00;0.00;;;;;22.57;49.58;101783.44;6148241;23;45357;-77
2021/07/22 03:44:56;;;;;;;;;0.25;0.25;;;;;22.70;49.71;101795.53;6146077;23;45597;-78
2021/07/22 03:47:22;;;;;;;;;4.75;1.00;;;;;22.70;49.80;101802.59;6145568;23;46240;-77
2021/07/22 03:49:47;;;;;;;;;2.50;0.00;;;;;22.66;50.03;101799.16;6145948;23;45435;-78
2021/07/22 03:52:13;;;;;;;;;0.00;0.00;;;;;22.65;49.84;101800.94;6147894;23;45438;-78
2021/07/22 03:54:39;;;;;;;;;2.25;1.25;;;;;22.58;49.89;101791.41;6148463;23;45345;-78
2021/07/22 03:57:04;;;;;;;;;0.00;0.00;;;;;22.64;49.68;101795.69;6147596;23;46016;-77
2021/07/22 03:59:30;;;;;;;;;3.25;0.75;;;;;22.57;49.77;101799.38;6147639;23;45331;-79
2021/07/22 04:01:55;;;;;;;;;0.00;0.00;;;;;22.36;50.28;101777.78;6146296;23;45554;-78
2021/07/22 04:04:21;;;;;;;;;2.00;0.00;;;;;22.34;50.09;101780.47;6148305;23;45335;-77
2021/07/22 04:06:46;;;;;;;;;0.00;0.00;;;;;22.43;50.22;101802.34;6147612;23;45843;-78
2021/07/22 04:09:11;;;;;;;;;0.00;0.00;;;;;22.36;50.63;101789.22;6147016;23;45342;-80
2021/07/22 04:11:37;;;;;;;;;1.00;0.00;;;;;22.47;50.06;101796.94;6145569;23;45340;-77
2021/07/22 04:14:03;;;;;;;;;0.75;0.00;;;;;22.48;50.69;101803.13;6148026;23;45266;-77
2021/07/22 04:16:28;;;;;;;;;0.00;0.00;;;;;22.25;50.21;101765.66;6147635;23;45307;-80
2021/07/22 04:18:54;;;;;;;;;0.75;0.75;;;;;22.45;50.02;101798.75;6147796;23;45243;-77
2021/07/22 04:21:19;;;;;;;;;4.00;0.00;;;;;;;;6147854;23;45312;-78
2021/07/22 04:23:44;;;;;;;;;0.25;0.00;;;;;22.31;50.20;101804.41;6147666;23;45303;-78
2021/07/22 04:26:14;;;;;;;;;2.00;0.00;;;;;22.30;50.62;101805.31;6147565;23;45410;-79
2021/07/22 04:28:39;;;;;;;;;0.75;0.75;;;;;22.22;50.08;101796.66;6147432;23;45485;-77
2021/07/22 04:31:04;;;;;;;;;0.00;0.00;;;;;22.12;50.72;101782.75;6147093;23;53220;-77
2021/07/22 04:33:30;;;;;;;;;1.75;1.00;;;;;21.85;50.89;101746.25;6147383;23;45360;-78
2021/07/22 04:35:56;;;;;;;;;0.75;0.50;;;;;22.01;50.17;101773.28;6147028;23;46114;-78
2021/07/22 04:38:21;;;;;;;;;0.50;0.50;;;;;22.21;50.39;101813.50;6145745;23;45500;-79
2021/07/22 04:40:46;;;;;;;;;1.25;0.00;;;;;22.16;51.00;101810.94;6147808;23;45608;-77
2021/07/22 04:43:12;;;;;;;;;1.75;1.75;;;;;22.11;50.88;101803.09;6146580;23;49925;-77
2021/07/22 04:45:37;;;;;;;;;1.50;0.50;;;;;22.08;50.53;101799.66;6147699;23;45347;-77
2021/07/22 04:48:03;;;;;;;;;1.00;1.00;;;;;22.25;50.63;101815.16;6147209;23;45289;-78
2021/07/22 04:50:29;;;;;;;;;0.00;0.00;;;;;22.22;50.08;101813.44;6146948;23;45312;-78
2021/07/22 04:52:54;;;;;;;;;0.75;0.00;;;;;22.06;50.16;101797.03;6147450;23;45425;-78
2021/07/22 04:55:19;;;;;;;;;0.50;0.00;;;;;22.06;49.92;101797.03;6145919;23;63324;-76
2021/07/22 04:57:45;;;;;;;;;1.00;1.00;;;;;22.07;50.05;101797.88;6145280;23;45348;-77
2021/07/22 05:00:10;;;;;;;;;1.50;0.25;;;;;22.22;50.65;101820.53;6146359;23;52323;-81
2021/07/22 05:02:35;;;;;;;;;1.00;1.00;;;;;22.26;50.40;101825.72;6146975;23;45424;-77
2021/07/22 05:05:02;;;;;;;;;2.25;1.00;;;;;22.34;50.50;101822.03;6146657;23;55039;-77
2021/07/22 05:07:27;;;;;;;;;1.00;1.00;;;;;22.29;50.00;101819.47;6147038;23;45387;-78
2021/07/22 05:09:52;;;;;;;;;1.25;1.25;;;;;22.22;49.83;101805.50;6146930;23;45689;-80
2021/07/22 05:12:17;;;;;;;;;0.50;0.00;;;;;21.96;50.14;101769.00;6146487;23;47602;-77
2021/07/22 05:14:43;;;;;;;;;0.50;0.50;;;;;22.22;50.51;101824.06;6143312;23;55332;-78
2021/07/22 05:17:08;;;;;;;;;1.75;1.00;;;;;22.24;49.85;101827.53;6147027;23;45463;-77
2021/07/22 05:19:33;;;;;;;;;1.00;0.00;;;;;22.31;50.09;101836.22;6146435;23;51723;-77
2021/07/22 05:21:59;;;;;;;;;0.50;0.50;;;;;22.34;50.47;101832.63;6147359;23;45671;-78
2021/07/22 05:24:24;;;;;;;;;0.00;0.00;;;;;22.32;49.79;101815.91;6146557;23;46047;-77
2021/07/22 05:26:50;;;;;;;;;1.50;0.00;;;;;22.48;50.09;101808.44;6146792;23;45447;-76
2021/07/22 05:29:16;;;;;;;;;1.00;1.00;;;;;22.61;49.90;101817.88;6146967;23;45422;-77
2021/07/22 05:31:42;;;;;;;;;1.00;1.00;;;;;22.73;49.79;101835.22;6145343;23;45351;-77
2021/07/22 05:34:09;;;;;;;;;0.00;0.00;;;;;22.70;49.74;101813.22;6146552;23;46375;-78
2021/07/22 05:36:34;;;;;;;;;2.00;2.00;;;;;22.90;49.82;101825.97;6144405;23;45371;-78
2021/07/22 05:39:00;;;;;;;;;1.00;1.00;;;;;23.02;49.49;101836.28;6146566;23;45233;-79
2021/07/22 05:41:25;;;;;;;;;0.00;0.00;;;;;23.11;48.80;101834.28;6144914;23;45360;-81
2021/07/22 05:43:51;;;;;;;;;1.00;1.00;;;;;22.83;48.38;101782.81;6146311;23;45714;-78
2021/07/22 05:46:20;;;;;;;;;1.00;1.00;;;;;23.18;48.58;101829.69;6146074;23;45578;-81
2021/07/22 05:48:49;;;;;;;;;0.00;0.00;;;;;23.24;48.24;101835.69;6147283;23;45440;-77
2021/07/22 05:51:15;;;;;;;;;1.25;0.00;;;;;23.32;48.04;101830.19;6146394;23;45250;-78
2021/07/22 05:53:41;;;;;;;;;0.50;0.50;;;;;23.26;48.02;101833.00;6146010;23;46086;-79
2021/07/22 05:56:06;;;;;;;;;0.75;0.75;;;;;23.24;48.13;101830.38;6143633;23;45419;-79
2021/07/22 05:58:32;;;;;;;;;0.75;0.75;;;;;23.19;48.19;101815.50;6145742;23;45424;-78
2021/07/22 06:00:58;;;;;;;;;2.75;1.00;;;;;23.28;48.07;101821.41;6145707;23;45383;-79
2021/07/22 06:03:23;;;;;;;;;0.00;0.00;;;;;23.40;47.95;101830.00;6145739;23;45622;-79
2021/07/22 06:05:49;;;;;;;;;0.50;0.50;;;;;23.47;47.65;101831.56;6145524;23;45435;-79
2021/07/22 06:08:15;;;;;;;;;0.75;0.25;;;;;23.53;47.26;101835.81;6144065;23;45317;-79
2021/07/22 06:10:41;;;;;;;;;1.00;1.00;;;;;23.33;47.29;101812.47;6145117;23;45437;-79
2021/07/22 06:13:06;;;;;;;;;0.50;0.25;;;;;23.43;47.34;101843.19;6144210;23;48276;-79
2021/07/22 06:15:32;;;;;;;;;1.00;1.00;;;;;23.41;47.44;101845.00;6145658;23;45247;-80
2021/07/22 06:17:57;;;;;;;;;1.25;0.50;;;;;23.38;47.42;101830.03;6143915;23;45238;-80
2021/07/22 06:20:22;;;;;;;;;2.25;0.75;;;;;23.49;46.80;101839.50;6146243;23;45443;-80
2021/07/22 06:22:48;;;;;;;;;1.00;1.00;;;;;23.52;46.73;101839.41;6146910;23;45386;-80
2021/07/22 06:25:14;;;;;;;;;0.00;0.00;;;;;23.54;47.07;101833.13;6145552;22;58019;-79
2021/07/22 06:27:43;;;;;;;;;0.00;0.00;;;;;23.54;47.21;101809.22;6148651;23;45556;-79
2021/07/22 06:30:11;;;;;;;;;0.00;0.00;;;;;23.69;46.40;101833.59;6147157;23;45747;-78
2021/07/22 06:32:36;;;;;;;;;0.75;0.00;;;;;23.62;46.95;101826.72;6146477;23;46584;-80
2021/07/22 06:35:03;;;;;;;;;1.00;0.00;;;;;23.58;46.62;101814.44;6147139;23;45347;-79
2021/07/22 06:37:28;;;;;;;;;3.00;1.00;;;;;23.73;46.38;101835.22;6147071;23;45230;-80
2021/07/22 06:39:54;;;;;;;;;1.00;1.00;;;;;23.77;46.32;101839.53;6147005;23;45403;-80
2021/07/22 06:42:19;;;;;;;;;1.00;1.00;;;;;23.82;46.00;101836.75;6146499;23;46366;-79
2021/07/22 06:44:45;;;;;;;;;0.00;0.00;;;;;23.70;46.63;101822.03;6147383;23;45284;-79
2021/07/22 06:47:10;;;;;;;;;0.00;0.00;;;;;23.65;46.65;101811.53;6147244;23;45338;-81
2021/07/22 06:49:35;;;;;;;;;1.25;0.00;;;;;23.71;45.96;101831.75;6148113;23;45264;-79
2021/07/22 06:52:01;;;;;;;;;1.00;1.00;;;;;23.60;46.18;101817.91;6147302;23;46072;-79
2021/07/22 06:54:26;;;;;;;;;0.75;0.75;;;;;23.65;46.07;101837.25;6146663;23;45241;-79
2021/07/22 06:56:51;;;;;;;;;1.00;1.00;;;;;23.64;46.48;101832.84;6146761;23;45352;-78
2021/07/22 06:59:17;;;;;;;;;1.00;1.00;;;;;23.69;46.77;101836.25;6148036;23;45304;-79
2021/07/22 07:01:42;;;;;;;;;0.00;0.00;;;;;23.68;46.56;101837.16;6146862;23;45324;-77
2021/07/22 07:04:08;;;;;;;;;2.00;0.00;;;;;23.69;46.49;101830.94;6145261;23;45380;-78
2021/07/22 07:06:34;;;;;;;;;1.00;0.25;;;;;23.77;46.55;101828.91;6146868;23;48035;-78
2021/07/22 07:09:00;;;;;;;;;0.00;0.00;;;;;23.90;45.77;101833.84;6146924;23;45420;-80
2021/07/22 07:11:25;;;;;;;;;1.75;0.00;;;;;23.98;46.04;101837.16;6146676;23;45248;-80
2021/07/22 07:13:50;;;;;;;;;1.50;0.25;;;;;24.07;46.00;101843.13;6147176;23;45354;-78
2021/07/22 07:16:16;;;;;;;;;1.00;0.50;;;;;24.02;45.61;101825.53;6146959;23;45347;-78
2021/07/22 07:18:41;;;;;;;;;0.00;0.00;;;;;24.07;45.52;101822.69;6147047;23;45283;-80
2021/07/22 07:21:06;;;;;;;;;3.75;0.75;;;;;24.26;45.52;101841.63;6144205;23;45372;-78
2021/07/22 07:23:33;;;;;;;;;0.50;0.50;;;;;24.26;45.73;101824.81;6141645;23;58866;-80
2021/07/22 07:25:58;;;;;;;;;0.75;0.75;;;;;24.31;45.18;101822.00;6148465;23;45333;-83
2021/07/22 07:28:24;;;;;;;;;0.00;0.00;;;;;24.25;45.21;101793.78;6146893;23;45249;-85
2021/07/22 07:30:49;;;;;;;;;0.00;0.00;;;;;24.46;45.46;101805.53;6147250;23;45988;-84
2021/07/22 07:33:14;;;;;;;;;0.00;0.00;;;;;24.48;44.61;101802.81;6145296;23;45278;-82
2021/07/22 07:35:40;;;;;;;;;0.75;0.75;;;;;24.71;44.37;101841.97;6148149;23;45530;-82
2021/07/22 07:38:05;;;;;;;;;2.00;0.00;;;;;24.73;44.01;101844.56;6147024;23;45567;-80
2021/07/22 07:40:31;;;;;;;;;1.00;1.00;;;;;24.13;43.77;101758.69;6146174;23;45319;-81
2021/07/22 07:42:56;;;;;;;;;0.75;0.75;;;;;24.51;43.25;101818.69;6147130;23;45224;-82
2021/07/22 07:45:22;;;;;;;;;0.50;0.50;;;;;24.69;42.91;101846.50;6145040;23;45416;-79
2021/07/22 07:47:47;;;;;;;;;1.50;1.25;;;;;24.71;43.13;101847.28;6146251;23;45238;-80
2021/07/22 07:50:13;;;;;;;;;1.50;1.50;;;;;24.75;43.17;101843.59;6136285;23;46014;-80
2021/07/22 07:52:39;;;;;;;;;1.50;0.25;;;;;24.80;43.58;101844.31;6144382;23;45412;-80
2021/07/22 07:55:06;;;;;;;;;2.00;0.00;;;;;24.80;43.12;101840.78;6145962;23;45238;-81
2021/07/22 07:57:32;;;;;;;;;0.00;0.00;;;;;24.26;42.86;101743.19;6145125;23;45441;-78
2021/07/22 07:59:58;;;;;;;;;2.00;0.25;;;;;24.72;41.54;101817.09;6146558;23;46423;-80
2021/07/22 08:02:23;;;;;;;;;1.00;1.00;;;;;24.88;41.91;101835.22;6145920;23;45649;-80
2021/07/22 08:04:48;;;;;;;;;0.75;0.75;;;;;24.86;41.53;101840.56;6144942;23;45352;-82
2021/07/22 08:07:14;;;;;;;;;1.75;1.75;;;;;24.62;41.58;101799.72;6146731;23;45304;-82
2021/07/22 08:09:39;;;;;;;;;0.00;0.00;;;;;24.63;41.66;101789.00;6144410;23;46924;-82
2021/07/22 08:12:05;;;;;;;;;0.50;0.50;;;;;24.61;41.53;101776.66;6146595;23;45307;-83
2021/07/22 08:14:36;;;;;;;;;2.00;2.00;;;;;25.09;41.58;101830.06;6147428;23;45366;-79
2021/07/22 08:17:02;;;;;;;;;1.00;0.00;;;;;25.10;40.23;101826.47;6146349;23;45268;-81
2021/07/22 08:19:27;;;;;;;;;1.00;1.00;;;;;25.18;39.97;101832.41;6145631;23;45349;-80
2021/07/22 08:21:52;;;;;;;;;0.50;0.50;;;;;24.68;40.58;101738.25;6144871;23;45504;-82
2021/07/22 08:24:18;;;;;;;;;0.25;0.25;;;;;25.00;39.88;101780.66;6146099;23;50892;-84
2021/07/22 08:26:43;;;;;;;;;0.25;0.25;;;;;24.94;39.96;101765.78;6146218;23;45228;-83
2021/07/22 08:29:08;;;;;;;;;0.00;0.00;;;;;25.03;40.17;101784.09;6146416;23;45389;-82
2021/07/22 08:31:34;;;;;;;;;2.75;1.00;;;;;25.12;40.43;101792.69;6143944;23;45241;-81
2021/07/22 08:33:59;;;;;;;;;0.00;0.00;;;;;25.40;40.08;101832.50;6143671;23;45278;-81
2021/07/22 08:36:24;;;;;;;;;0.00;0.00;;;;;25.25;39.96;101815.28;6145997;23;45317;-82
2021/07/22 08:38:50;;;;;;;;;0.00;0.00;;;;;25.44;39.83;101841.25;6143886;22;47141;-81
2021/07/22 08:41:16;;;;;;;;;0.25;0.25;;;;;25.53;39.97;101827.56;6146365;23;45561;-84
2021/07/22 08:43:41;;;;;;;;;2.00;1.00;;;;;25.66;40.04;101830.69;6142650;23;45405;-83
2021/07/22 08:46:06;;;;;;;;;3.75;1.75;;;;;25.31;39.59;101755.56;6145574;23;45320;-83
2021/07/22 08:48:36;;;;;;;;;0.00;0.00;;;;;25.85;39.71;101829.94;6142809;23;61213;-82
2021/07/22 08:51:04;;;;;;;;;1.50;1.00;;;;;25.78;39.41;101815.13;6144633;23;45353;-80
2021/07/22 08:53:29;;;;;;;;;0.00;0.00;;;;;25.74;39.00;101784.19;6145248;23;45300;-78
2021/07/22 08:55:58;;;;;;;;;0.00;0.00;;;;;26.08;38.82;101813.97;6144853;23;45276;-79
2021/07/22 08:58:25;;;;;;;;;2.00;1.00;;;;;26.00;38.95;101808.97;6145388;23;45511;-78
2021/07/22 09:00:52;;;;;;;;;0.00;0.00;;;;;26.11;38.91;101835.19;6145065;23;45363;-80
2021/07/22 09:03:18;;;;;;;;;2.75;1.50;;;;;26.05;38.44;101814.97;6145555;23;45387;-78
2021/07/22 09:05:43;;;;;;;;;0.00;0.00;;;;;26.08;38.69;101838.84;6141704;23;45456;-82
2021/07/22 09:08:09;;;;;;;;;3.25;1.00;;;;;26.11;38.47;101833.41;6140250;23;45360;-84
2021/07/22 09:10:34;;;;;;;;;0.00;0.00;;;;;26.14;38.95;101840.41;6145045;23;45318;-88
2021/07/22 09:12:59;;;;;;;;;1.25;1.25;;;;;26.15;38.64;101820.81;6144520;23;45404;-80
2021/07/22 09:15:34;;;;;;;;;0.50;0.00;;;;;26.03;38.93;101806.19;6143692;23;45336;-86
2021/07/22 09:18:18;;;;;;;;;1.00;1.00;;;;;26.09;38.46;101792.56;6143617;23;47140;-87
2021/07/22 09:20:44;;;;;;;;;0.75;0.75;;;;;26.22;38.42;101808.09;6145837;23;45700;-84
2021/07/22 09:23:18;;;;;;;;;0.00;0.00;;;;;26.44;39.01;101837.47;6145927;23;45440;-84
2021/07/22 09:25:45;;;;;;;;;0.75;0.25;;;;;26.45;38.37;101823.19;6147439;23;45531;-90
2021/07/22 09:28:25;;;;;;;;;1.50;0.00;;;;;26.32;38.29;101814.81;6146906;23;46164;-85
2021/07/22 09:31:04;;;;;;;;;0.25;0.25;;;;;26.24;38.60;101796.41;6145047;23;45327;-86
2021/07/22 09:33:41;;;;;;;;;0.00;0.00;;;;;26.44;38.45;101822.31;6145169;23;45250;-84
2021/07/22 09:36:27;;;;;;;;;0.25;0.25;;;;;26.52;38.80;101823.81;6145791;23;45495;-86
2021/07/22 09:38:52;;;;;;;;;3.75;1.00;;;;;26.54;38.68;101822.81;6128731;23;46708;-86
2021/07/22 09:41:22;;;;;;;;;1.25;1.25;;;;;26.56;38.03;101831.59;6145784;23;45404;-80
2021/07/22 09:43:47;;;;;;;;;1.75;1.00;;;;;26.52;38.26;101824.66;6145958;23;45457;-80
2021/07/22 09:46:16;;;;;;;;;0.00;0.00;;;;;26.46;38.18;101810.72;6145877;23;45388;-84
2021/07/22 09:49:09;;;;;;;;;0.75;0.50;;;;;26.68;38.55;101834.69;6143318;23;47501;-80
2021/07/22 09:51:35;;;;;;;;;0.75;0.75;;;;;26.64;38.24;101823.28;6145526;23;45328;-80
2021/07/22 09:54:08;;;;;;;;;2.50;1.00;;;;;26.56;38.18;101812.91;6145590;23;45369;-82
2021/07/22 09:56:37;;;;;;;;;1.00;1.00;;;;;26.64;38.00;101811.75;6145803;23;45375;-79
2021/07/22 09:59:04;;;;;;;;;2.00;0.00;;;;;26.54;37.96;101776.53;6147183;23;45322;-88
2021/07/22 10:01:33;;;;;;;;;1.00;1.00;;;;;26.69;37.63;101799.94;6143731;23;45356;-84
2021/07/22 10:04:02;;;;;;;;;0.75;0.75;;;;;26.64;37.42;101793.91;6146775;23;45308;-87
2021/07/22 10:06:30;;;;;;;;;0.25;0.00;;;;;26.43;37.82;101755.66;6147667;23;45490;-84
2021/07/22 10:08:56;;;;;;;;;0.25;0.25;;;;;26.83;37.79;101806.47;6169287;23;46902;-81
2021/07/22 10:11:21;;;;;;;;;0.00;0.00;;;;;26.84;37.41;101810.00;6146027;23;45418;-79
2021/07/22 10:13:47;;;;;;;;;1.50;0.25;;;;;26.85;37.63;101804.59;6147130;23;45300;-79
2021/07/22 10:16:21;;;;;;;;;0.00;0.00;;;;;26.89;37.59;101803.50;6145578;23;45761;-83
2021/07/22 10:18:49;;;;;;;;;1.00;1.00;;;;;26.50;37.37;101730.44;6144791;23;48020;-84
2021/07/22 10:21:15;;;;;;;;;0.25;0.25;;;;;26.82;37.72;101775.34;6146122;23;46045;-85
2021/07/22 10:23:41;;;;;;;;;0.00;0.00;;;;;27.03;37.47;101791.38;6147015;23;45269;-82
2021/07/22 10:26:07;;;;;;;;;0.75;0.75;;;;;27.10;37.43;101792.00;6146828;23;45297;-82
2021/07/22 10:28:33;;;;;;;;;5.50;0.25;;;;;27.19;37.71;101795.09;6145608;23;46111;-83
2021/07/22 10:31:03;;;;;;;;;0.00;0.00;;;;;27.13;37.29;101798.03;6168577;23;45351;-84
2021/07/22 10:33:30;;;;;;;;;0.00;0.00;;;;;27.16;37.21;101781.88;6146248;23;45280;-80
2021/07/22 10:35:56;;;;;;;;;0.00;0.00;;;;;27.13;37.17;101782.00;6147547;23;45224;-81
2021/07/22 10:38:23;;;;;;;;;0.00;0.00;;;;;27.23;37.44;101782.47;6146555;23;45382;-81
2021/07/22 10:40:57;;;;;;;;;1.00;0.50;;;;;27.25;36.44;101777.06;6146051;23;45393;-80
2021/07/22 10:43:42;;;;;;;;;1.00;0.00;;;;;27.22;36.26;101772.72;6147046;23;45349;-83
2021/07/22 10:46:20;;;;;;;;;2.00;0.75;;;;;27.09;37.59;101743.00;6146915;23;45376;-83
2021/07/22 10:48:46;;;;;;;;;0.00;0.00;;;;;27.40;36.45;101778.13;6146828;23;46648;-80
2021/07/22 10:51:14;;;;;;;;;0.00;0.00;;;;;27.45;36.11;101776.13;6145977;23;45520;-80
2021/07/22 10:53:39;;;;;;;;;0.00;0.00;;;;;27.51;36.08;101770.50;6145303;23;45481;-78
2021/07/22 10:56:06;;;;;;;;;0.25;0.25;;;;;27.49;36.29;101766.16;6147956;23;45677;-79
2021/07/22 10:58:34;;;;;;;;;0.00;0.00;;;;;27.45;36.69;101768.13;6146568;23;46174;-79
2021/07/22 11:01:03;;;;;;;;;1.00;1.00;;;;;27.45;36.62;101768.13;6146072;23;45385;-79
2021/07/22 11:03:35;;;;;;;;;0.00;0.00;;;;;27.42;36.11;101770.94;6146323;23;45331;-81
2021/07/22 11:06:06;;;;;;;;;0.00;0.00;;;;;27.39;36.75;101768.38;6147116;23;45442;-79
2021/07/22 11:08:33;;;;;;;;;0.25;0.25;;;;;27.41;36.47;101758.50;6145896;23;46209;-79
2021/07/22 11:11:03;;;;;;;;;2.00;0.00;;;;;27.45;36.16;101762.75;6146722;23;45300;-78
2021/07/22 11:13:43;;;;;;;;;1.00;1.00;;;;;27.46;36.18;101761.81;6146542;23;45254;-79
2021/07/22 11:16:25;;;;;;;;;0.25;0.00;;;;;27.36;36.74;101758.72;6146812;23;45382;-81
2021/07/22 11:19:12;;;;;;;;;2.00;0.00;;;;;27.27;37.07;101762.69;6146126;23;45512;-79
2021/07/22 11:21:38;;;;;;;;;0.00;0.00;;;;;27.23;36.67;101758.44;6146143;23;45355;-78
2021/07/22 11:24:16;;;;;;;;;0.00;0.00;;;;;27.20;36.74;101755.91;6146866;23;45327;-78